sensor_id;sensor_type;location;lat;lon;timestamp;P1;durP1;ratioP1;P2;durP2;ratioP2
10967;SDS011;5536;49.602;10.980;2022-07-23T00:01:40;4.00;;;3.60;;
10967;SDS011;5536;49.602;10.980;2022-07-23T00:04:07;4.55;;;3.63;;
10967;SDS011;5536;49.602;10.980;2022-07-23T00:06:34;4.43;;;3.83;;
10967;SDS011;5536;49.602;10.980;2022-07-23T00:09:02;4.07;;;3.33;;
10967;SDS011;5536;49.602;10.980;2022-07-23T00:11:29;3.97;;;3.58;;
10967;SDS011;5536;49.602;10.980;2022-07-23T00:13:56;4.45;;;3.20;;
10967;SDS011;5536;49.602;10.980;2022-07-23T00:16:23;6.07;;;3.78;;
10967;SDS011;5536;49.602;10.980;2022-07-23T00:18:50;4.90;;;4.40;;
10967;SDS011;5536;49.602;10.980;2022-07-23T00:21:17;6.45;;;3.90;;
10967;SDS011;5536;49.602;10.980;2022-07-23T00:23:44;4.53;;;3.80;;
10967;SDS011;5536;49.602;10.980;2022-07-23T00:26:12;4.05;;;3.63;;
10967;SDS011;5536;49.602;10.980;2022-07-23T00:28:39;4.82;;;3.42;;
10967;SDS011;5536;49.602;10.980;2022-07-23T00:31:06;6.07;;;3.75;;
10967;SDS011;5536;49.602;10.980;2022-07-23T00:33:33;3.78;;;3.38;;
10967;SDS011;5536;49.602;10.980;2022-07-23T00:36:00;3.30;;;3.05;;
10967;SDS011;5536;49.602;10.980;2022-07-23T00:38:27;3.63;;;3.33;;
10967;SDS011;5536;49.602;10.980;2022-07-23T00:40:54;5.63;;;4.03;;
10967;SDS011;5536;49.602;10.980;2022-07-23T00:43:22;5.40;;;3.90;;
10967;SDS011;5536;49.602;10.980;2022-07-23T00:45:50;6.35;;;3.63;;
10967;SDS011;5536;49.602;10.980;2022-07-23T00:48:17;4.28;;;3.88;;
10967;SDS011;5536;49.602;10.980;2022-07-23T00:50:43;5.80;;;3.90;;
10967;SDS011;5536;49.602;10.980;2022-07-23T00:53:10;3.85;;;3.35;;
10967;SDS011;5536;49.602;10.980;2022-07-23T00:55:38;4.05;;;3.65;;
10967;SDS011;5536;49.602;10.980;2022-07-23T00:58:05;3.65;;;3.22;;
10967;SDS011;5536;49.602;10.980;2022-07-23T01:00:34;4.43;;;3.83;;
10967;SDS011;5536;49.602;10.980;2022-07-23T01:03:01;5.38;;;3.78;;
10967;SDS011;5536;49.602;10.980;2022-07-23T01:05:28;7.43;;;4.15;;
10967;SDS011;5536;49.602;10.980;2022-07-23T01:07:55;4.85;;;3.45;;
10967;SDS011;5536;49.602;10.980;2022-07-23T01:10:22;4.03;;;3.65;;
10967;SDS011;5536;49.602;10.980;2022-07-23T01:12:59;4.25;;;3.85;;
10967;SDS011;5536;49.602;10.980;2022-07-23T01:15:27;3.88;;;3.58;;
10967;SDS011;5536;49.602;10.980;2022-07-23T01:17:56;6.78;;;4.25;;
10967;SDS011;5536;49.602;10.980;2022-07-23T01:20:23;4.13;;;3.70;;
10967;SDS011;5536;49.602;10.980;2022-07-23T01:22:51;6.22;;;4.10;;
10967;SDS011;5536;49.602;10.980;2022-07-23T01:25:19;4.20;;;3.80;;
10967;SDS011;5536;49.602;10.980;2022-07-23T01:27:46;4.63;;;3.55;;
10967;SDS011;5536;49.602;10.980;2022-07-23T01:30:14;3.83;;;3.20;;
10967;SDS011;5536;49.602;10.980;2022-07-23T01:32:41;4.15;;;3.75;;
10967;SDS011;5536;49.602;10.980;2022-07-23T01:35:08;3.90;;;3.50;;
10967;SDS011;5536;49.602;10.980;2022-07-23T01:37:35;6.40;;;3.97;;
10967;SDS011;5536;49.602;10.980;2022-07-23T01:40:05;4.13;;;3.72;;
10967;SDS011;5536;49.602;10.980;2022-07-23T01:42:33;5.75;;;4.15;;
10967;SDS011;5536;49.602;10.980;2022-07-23T01:45:01;5.75;;;4.50;;
10967;SDS011;5536;49.602;10.980;2022-07-23T01:47:29;5.45;;;4.18;;
10967;SDS011;5536;49.602;10.980;2022-07-23T01:49:56;4.22;;;3.83;;
10967;SDS011;5536;49.602;10.980;2022-07-23T01:52:23;4.53;;;3.95;;
10967;SDS011;5536;49.602;10.980;2022-07-23T01:54:50;3.67;;;3.33;;
10967;SDS011;5536;49.602;10.980;2022-07-23T01:57:18;4.57;;;3.65;;
10967;SDS011;5536;49.602;10.980;2022-07-23T01:59:45;3.80;;;3.40;;
10967;SDS011;5536;49.602;10.980;2022-07-23T02:02:12;4.20;;;3.80;;
10967;SDS011;5536;49.602;10.980;2022-07-23T02:04:39;5.15;;;4.03;;
10967;SDS011;5536;49.602;10.980;2022-07-23T02:07:06;5.13;;;3.72;;
10967;SDS011;5536;49.602;10.980;2022-07-23T02:09:33;4.22;;;3.83;;
10967;SDS011;5536;49.602;10.980;2022-07-23T02:12:00;4.53;;;4.10;;
10967;SDS011;5536;49.602;10.980;2022-07-23T02:14:28;4.97;;;3.33;;
10967;SDS011;5536;49.602;10.980;2022-07-23T02:16:55;4.00;;;3.60;;
10967;SDS011;5536;49.602;10.980;2022-07-23T02:19:22;4.70;;;4.25;;
10967;SDS011;5536;49.602;10.980;2022-07-23T02:21:49;4.10;;;3.70;;
10967;SDS011;5536;49.602;10.980;2022-07-23T02:24:16;5.18;;;4.25;;
10967;SDS011;5536;49.602;10.980;2022-07-23T02:26:43;5.85;;;4.05;;
10967;SDS011;5536;49.602;10.980;2022-07-23T02:29:10;5.28;;;3.38;;
10967;SDS011;5536;49.602;10.980;2022-07-23T02:31:39;4.13;;;3.60;;
10967;SDS011;5536;49.602;10.980;2022-07-23T02:34:05;4.60;;;4.15;;
10967;SDS011;5536;49.602;10.980;2022-07-23T02:36:36;5.50;;;4.13;;
10967;SDS011;5536;49.602;10.980;2022-07-23T02:39:04;3.95;;;3.55;;
10967;SDS011;5536;49.602;10.980;2022-07-23T02:41:31;4.93;;;4.22;;
10967;SDS011;5536;49.602;10.980;2022-07-23T02:43:57;6.07;;;3.60;;
10967;SDS011;5536;49.602;10.980;2022-07-23T02:46:24;4.80;;;3.72;;
10967;SDS011;5536;49.602;10.980;2022-07-23T02:48:53;9.52;;;3.92;;
10967;SDS011;5536;49.602;10.980;2022-07-23T02:51:20;5.47;;;3.70;;
10967;SDS011;5536;49.602;10.980;2022-07-23T02:53:46;4.43;;;3.95;;
10967;SDS011;5536;49.602;10.980;2022-07-23T02:56:13;4.03;;;3.67;;
10967;SDS011;5536;49.602;10.980;2022-07-23T02:58:40;4.07;;;3.78;;
10967;SDS011;5536;49.602;10.980;2022-07-23T03:01:07;4.05;;;3.65;;
10967;SDS011;5536;49.602;10.980;2022-07-23T03:03:34;4.53;;;4.13;;
10967;SDS011;5536;49.602;10.980;2022-07-23T03:06:03;4.75;;;3.60;;
10967;SDS011;5536;49.602;10.980;2022-07-23T03:08:30;6.85;;;4.55;;
10967;SDS011;5536;49.602;10.980;2022-07-23T03:10:57;5.22;;;4.07;;
10967;SDS011;5536;49.602;10.980;2022-07-23T03:13:24;4.13;;;3.72;;
10967;SDS011;5536;49.602;10.980;2022-07-23T03:15:51;4.72;;;4.07;;
10967;SDS011;5536;49.602;10.980;2022-07-23T03:18:18;5.40;;;4.50;;
10967;SDS011;5536;49.602;10.980;2022-07-23T03:20:45;4.72;;;4.22;;
10967;SDS011;5536;49.602;10.980;2022-07-23T03:23:13;4.22;;;3.83;;
10967;SDS011;5536;49.602;10.980;2022-07-23T03:25:41;4.53;;;4.13;;
10967;SDS011;5536;49.602;10.980;2022-07-23T03:28:08;7.80;;;4.55;;
10967;SDS011;5536;49.602;10.980;2022-07-23T03:30:35;4.88;;;4.38;;
10967;SDS011;5536;49.602;10.980;2022-07-23T03:33:02;6.10;;;4.20;;
10967;SDS011;5536;49.602;10.980;2022-07-23T03:35:29;4.93;;;3.97;;
10967;SDS011;5536;49.602;10.980;2022-07-23T03:37:56;5.93;;;4.18;;
10967;SDS011;5536;49.602;10.980;2022-07-23T03:40:24;6.30;;;4.57;;
10967;SDS011;5536;49.602;10.980;2022-07-23T03:42:51;4.13;;;3.80;;
10967;SDS011;5536;49.602;10.980;2022-07-23T03:45:18;5.97;;;4.20;;
10967;SDS011;5536;49.602;10.980;2022-07-23T03:47:45;5.50;;;4.38;;
10967;SDS011;5536;49.602;10.980;2022-07-23T03:50:12;4.93;;;4.20;;
10967;SDS011;5536;49.602;10.980;2022-07-23T03:52:39;4.97;;;4.47;;
10967;SDS011;5536;49.602;10.980;2022-07-23T03:55:06;5.30;;;4.15;;
10967;SDS011;5536;49.602;10.980;2022-07-23T03:57:35;5.00;;;4.13;;
10967;SDS011;5536;49.602;10.980;2022-07-23T04:00:02;4.68;;;4.25;;
10967;SDS011;5536;49.602;10.980;2022-07-23T04:02:30;10.00;;;4.38;;
10967;SDS011;5536;49.602;10.980;2022-07-23T04:04:57;4.75;;;4.32;;
10967;SDS011;5536;49.602;10.980;2022-07-23T04:07:24;7.53;;;4.40;;
10967;SDS011;5536;49.602;10.980;2022-07-23T04:09:51;4.53;;;3.97;;
10967;SDS011;5536;49.602;10.980;2022-07-23T04:12:18;4.93;;;3.90;;
10967;SDS011;5536;49.602;10.980;2022-07-23T04:14:46;4.85;;;4.45;;
10967;SDS011;5536;49.602;10.980;2022-07-23T04:17:13;4.25;;;3.85;;
10967;SDS011;5536;49.602;10.980;2022-07-23T04:19:40;4.75;;;4.20;;
10967;SDS011;5536;49.602;10.980;2022-07-23T04:22:09;7.43;;;4.38;;
10967;SDS011;5536;49.602;10.980;2022-07-23T04:24:36;5.90;;;4.13;;
10967;SDS011;5536;49.602;10.980;2022-07-23T04:27:04;4.60;;;4.18;;
10967;SDS011;5536;49.602;10.980;2022-07-23T04:29:32;4.57;;;4.00;;
10967;SDS011;5536;49.602;10.980;2022-07-23T04:32:00;5.05;;;4.32;;
10967;SDS011;5536;49.602;10.980;2022-07-23T04:34:27;4.40;;;4.00;;
10967;SDS011;5536;49.602;10.980;2022-07-23T04:36:54;4.20;;;3.80;;
10967;SDS011;5536;49.602;10.980;2022-07-23T04:39:21;5.68;;;4.05;;
10967;SDS011;5536;49.602;10.980;2022-07-23T04:41:48;4.30;;;3.90;;
10967;SDS011;5536;49.602;10.980;2022-07-23T04:44:15;4.53;;;4.10;;
10967;SDS011;5536;49.602;10.980;2022-07-23T04:46:42;7.43;;;4.50;;
10967;SDS011;5536;49.602;10.980;2022-07-23T04:49:10;4.97;;;4.18;;
10967;SDS011;5536;49.602;10.980;2022-07-23T04:51:37;4.93;;;4.38;;
10967;SDS011;5536;49.602;10.980;2022-07-23T04:54:04;5.25;;;4.18;;
10967;SDS011;5536;49.602;10.980;2022-07-23T04:56:31;4.88;;;4.20;;
10967;SDS011;5536;49.602;10.980;2022-07-23T04:58:58;4.60;;;3.75;;
10967;SDS011;5536;49.602;10.980;2022-07-23T05:01:25;8.70;;;4.40;;
10967;SDS011;5536;49.602;10.980;2022-07-23T05:03:52;4.45;;;4.05;;
10967;SDS011;5536;49.602;10.980;2022-07-23T05:06:20;9.52;;;4.72;;
10967;SDS011;5536;49.602;10.980;2022-07-23T05:08:47;6.95;;;4.45;;
10967;SDS011;5536;49.602;10.980;2022-07-23T05:11:14;4.03;;;3.60;;
10967;SDS011;5536;49.602;10.980;2022-07-23T05:13:41;3.75;;;3.45;;
10967;SDS011;5536;49.602;10.980;2022-07-23T05:16:08;4.22;;;3.83;;
10967;SDS011;5536;49.602;10.980;2022-07-23T05:18:35;3.72;;;3.42;;
10967;SDS011;5536;49.602;10.980;2022-07-23T05:21:02;4.72;;;3.85;;
10967;SDS011;5536;49.602;10.980;2022-07-23T05:23:30;4.07;;;3.78;;
10967;SDS011;5536;49.602;10.980;2022-07-23T05:25:57;4.53;;;4.03;;
10967;SDS011;5536;49.602;10.980;2022-07-23T05:28:24;7.85;;;4.18;;
10967;SDS011;5536;49.602;10.980;2022-07-23T05:30:51;4.13;;;3.72;;
10967;SDS011;5536;49.602;10.980;2022-07-23T05:33:18;5.78;;;3.92;;
10967;SDS011;5536;49.602;10.980;2022-07-23T05:35:45;6.45;;;4.25;;
10967;SDS011;5536;49.602;10.980;2022-07-23T05:38:12;4.25;;;3.85;;
10967;SDS011;5536;49.602;10.980;2022-07-23T05:40:41;4.10;;;3.70;;
10967;SDS011;5536;49.602;10.980;2022-07-23T05:43:07;4.63;;;3.63;;
10967;SDS011;5536;49.602;10.980;2022-07-23T05:45:34;4.38;;;3.78;;
10967;SDS011;5536;49.602;10.980;2022-07-23T05:48:01;3.95;;;3.58;;
10967;SDS011;5536;49.602;10.980;2022-07-23T05:50:29;4.63;;;4.03;;
10967;SDS011;5536;49.602;10.980;2022-07-23T05:52:56;2.97;;;2.78;;
10967;SDS011;5536;49.602;10.980;2022-07-23T05:55:22;9.02;;;4.45;;
10967;SDS011;5536;49.602;10.980;2022-07-23T05:57:51;3.78;;;3.38;;
10967;SDS011;5536;49.602;10.980;2022-07-23T06:00:18;3.30;;;3.00;;
10967;SDS011;5536;49.602;10.980;2022-07-23T06:02:45;3.55;;;3.25;;
10967;SDS011;5536;49.602;10.980;2022-07-23T06:05:11;3.35;;;3.08;;
10967;SDS011;5536;49.602;10.980;2022-07-23T06:07:38;3.17;;;2.88;;
10967;SDS011;5536;49.602;10.980;2022-07-23T06:10:06;4.07;;;3.42;;
10967;SDS011;5536;49.602;10.980;2022-07-23T06:12:34;5.93;;;3.53;;
10967;SDS011;5536;49.602;10.980;2022-07-23T06:15:02;3.95;;;3.58;;
10967;SDS011;5536;49.602;10.980;2022-07-23T06:17:30;4.57;;;3.40;;
10967;SDS011;5536;49.602;10.980;2022-07-23T06:19:57;3.78;;;3.40;;
10967;SDS011;5536;49.602;10.980;2022-07-23T06:22:24;9.40;;;3.55;;
10967;SDS011;5536;49.602;10.980;2022-07-23T06:24:51;4.70;;;3.42;;
10967;SDS011;5536;49.602;10.980;2022-07-23T06:27:18;4.40;;;3.45;;
10967;SDS011;5536;49.602;10.980;2022-07-23T06:29:45;3.53;;;3.22;;
10967;SDS011;5536;49.602;10.980;2022-07-23T06:32:14;2.92;;;2.72;;
10967;SDS011;5536;49.602;10.980;2022-07-23T06:34:41;2.97;;;2.75;;
10967;SDS011;5536;49.602;10.980;2022-07-23T06:37:08;3.10;;;2.90;;
10967;SDS011;5536;49.602;10.980;2022-07-23T06:39:34;3.15;;;2.85;;
10967;SDS011;5536;49.602;10.980;2022-07-23T06:42:01;2.92;;;2.72;;
10967;SDS011;5536;49.602;10.980;2022-07-23T06:44:29;4.07;;;3.67;;
10967;SDS011;5536;49.602;10.980;2022-07-23T06:46:55;2.58;;;2.38;;
10967;SDS011;5536;49.602;10.980;2022-07-23T06:49:24;3.30;;;3.00;;
10967;SDS011;5536;49.602;10.980;2022-07-23T06:51:51;4.97;;;2.30;;
10967;SDS011;5536;49.602;10.980;2022-07-23T06:54:18;3.08;;;2.88;;
10967;SDS011;5536;49.602;10.980;2022-07-23T06:56:44;3.38;;;2.92;;
10967;SDS011;5536;49.602;10.980;2022-07-23T06:59:11;3.58;;;2.85;;
10967;SDS011;5536;49.602;10.980;2022-07-23T07:01:38;3.45;;;2.75;;
10967;SDS011;5536;49.602;10.980;2022-07-23T07:04:05;3.65;;;2.70;;
10967;SDS011;5536;49.602;10.980;2022-07-23T07:06:34;2.90;;;2.70;;
10967;SDS011;5536;49.602;10.980;2022-07-23T07:09:01;3.60;;;2.63;;
10967;SDS011;5536;49.602;10.980;2022-07-23T07:11:28;2.80;;;2.58;;
10967;SDS011;5536;49.602;10.980;2022-07-23T07:13:55;2.95;;;2.60;;
10967;SDS011;5536;49.602;10.980;2022-07-23T07:16:22;2.72;;;2.50;;
10967;SDS011;5536;49.602;10.980;2022-07-23T07:18:49;2.67;;;2.40;;
10967;SDS011;5536;49.602;10.980;2022-07-23T07:21:16;3.20;;;2.63;;
10967;SDS011;5536;49.602;10.980;2022-07-23T07:23:44;2.92;;;2.67;;
10967;SDS011;5536;49.602;10.980;2022-07-23T07:26:11;3.70;;;3.30;;
10967;SDS011;5536;49.602;10.980;2022-07-23T07:28:38;4.70;;;2.85;;
10967;SDS011;5536;49.602;10.980;2022-07-23T07:31:05;2.97;;;2.72;;
10967;SDS011;5536;49.602;10.980;2022-07-23T07:33:32;2.65;;;2.45;;
10967;SDS011;5536;49.602;10.980;2022-07-23T07:35:59;3.80;;;2.90;;
10967;SDS011;5536;49.602;10.980;2022-07-23T07:38:26;3.78;;;2.53;;
10967;SDS011;5536;49.602;10.980;2022-07-23T07:40:55;3.05;;;2.50;;
10967;SDS011;5536;49.602;10.980;2022-07-23T07:43:21;2.90;;;2.60;;
10967;SDS011;5536;49.602;10.980;2022-07-23T07:45:48;2.70;;;2.50;;
10967;SDS011;5536;49.602;10.980;2022-07-23T07:48:15;6.45;;;2.28;;
10967;SDS011;5536;49.602;10.980;2022-07-23T07:50:42;2.45;;;2.25;;
10967;SDS011;5536;49.602;10.980;2022-07-23T07:53:09;2.38;;;2.17;;
10967;SDS011;5536;49.602;10.980;2022-07-23T07:55:36;3.13;;;2.83;;
10967;SDS011;5536;49.602;10.980;2022-07-23T07:58:04;4.15;;;2.90;;
10967;SDS011;5536;49.602;10.980;2022-07-23T08:00:31;2.47;;;2.28;;
10967;SDS011;5536;49.602;10.980;2022-07-23T08:02:59;2.83;;;2.63;;
10967;SDS011;5536;49.602;10.980;2022-07-23T08:05:26;3.13;;;2.50;;
10967;SDS011;5536;49.602;10.980;2022-07-23T08:07:54;2.80;;;2.60;;
10967;SDS011;5536;49.602;10.980;2022-07-23T08:10:21;3.13;;;2.78;;
10967;SDS011;5536;49.602;10.980;2022-07-23T08:12:49;3.25;;;2.88;;
10967;SDS011;5536;49.602;10.980;2022-07-23T08:15:19;3.00;;;2.70;;
10967;SDS011;5536;49.602;10.980;2022-07-23T08:17:47;5.65;;;3.00;;
10967;SDS011;5536;49.602;10.980;2022-07-23T08:20:15;3.92;;;3.03;;
10967;SDS011;5536;49.602;10.980;2022-07-23T08:22:44;3.30;;;2.88;;
10967;SDS011;5536;49.602;10.980;2022-07-23T08:25:13;3.00;;;2.45;;
10967;SDS011;5536;49.602;10.980;2022-07-23T08:27:40;3.83;;;2.80;;
10967;SDS011;5536;49.602;10.980;2022-07-23T08:30:07;2.75;;;2.55;;
10967;SDS011;5536;49.602;10.980;2022-07-23T08:32:53;3.08;;;2.78;;
10967;SDS011;5536;49.602;10.980;2022-07-23T08:35:22;3.42;;;3.08;;
10967;SDS011;5536;49.602;10.980;2022-07-23T08:37:50;3.25;;;2.95;;
10967;SDS011;5536;49.602;10.980;2022-07-23T08:40:18;3.15;;;2.83;;
10967;SDS011;5536;49.602;10.980;2022-07-23T08:42:47;3.10;;;2.75;;
10967;SDS011;5536;49.602;10.980;2022-07-23T08:45:16;3.53;;;3.17;;
10967;SDS011;5536;49.602;10.980;2022-07-23T08:47:45;5.10;;;3.00;;
10967;SDS011;5536;49.602;10.980;2022-07-23T08:50:17;3.38;;;2.70;;
10967;SDS011;5536;49.602;10.980;2022-07-23T08:52:44;2.80;;;2.60;;
10967;SDS011;5536;49.602;10.980;2022-07-23T08:55:11;3.58;;;3.03;;
10967;SDS011;5536;49.602;10.980;2022-07-23T08:57:38;3.30;;;3.00;;
10967;SDS011;5536;49.602;10.980;2022-07-23T09:00:06;10.80;;;3.40;;
10967;SDS011;5536;49.602;10.980;2022-07-23T09:02:40;4.70;;;3.03;;
10967;SDS011;5536;49.602;10.980;2022-07-23T09:05:08;3.03;;;2.75;;
10967;SDS011;5536;49.602;10.980;2022-07-23T09:07:38;3.28;;;2.97;;
10967;SDS011;5536;49.602;10.980;2022-07-23T09:10:48;3.92;;;3.33;;
10967;SDS011;5536;49.602;10.980;2022-07-23T09:13:34;3.15;;;2.85;;
10967;SDS011;5536;49.602;10.980;2022-07-23T09:16:04;3.08;;;2.85;;
10967;SDS011;5536;49.602;10.980;2022-07-23T09:18:37;5.35;;;3.22;;
10967;SDS011;5536;49.602;10.980;2022-07-23T09:21:16;3.10;;;2.63;;
10967;SDS011;5536;49.602;10.980;2022-07-23T09:23:47;3.88;;;3.22;;
10967;SDS011;5536;49.602;10.980;2022-07-23T09:26:17;3.78;;;3.35;;
10967;SDS011;5536;49.602;10.980;2022-07-23T09:28:56;6.63;;;3.28;;
10967;SDS011;5536;49.602;10.980;2022-07-23T09:31:25;3.72;;;3.25;;
10967;SDS011;5536;49.602;10.980;2022-07-23T09:34:06;3.13;;;2.90;;
10967;SDS011;5536;49.602;10.980;2022-07-23T09:36:37;4.47;;;3.13;;
10967;SDS011;5536;49.602;10.980;2022-07-23T09:39:06;6.78;;;3.17;;
10967;SDS011;5536;49.602;10.980;2022-07-23T09:41:34;4.82;;;3.10;;
10967;SDS011;5536;49.602;10.980;2022-07-23T09:44:07;4.85;;;3.88;;
10967;SDS011;5536;49.602;10.980;2022-07-23T09:46:35;3.85;;;3.10;;
10967;SDS011;5536;49.602;10.980;2022-07-23T09:49:09;3.13;;;2.92;;
10967;SDS011;5536;49.602;10.980;2022-07-23T09:51:43;4.38;;;3.97;;
10967;SDS011;5536;49.602;10.980;2022-07-23T09:54:21;4.43;;;3.33;;
10967;SDS011;5536;49.602;10.980;2022-07-23T09:56:51;3.78;;;3.45;;
10967;SDS011;5536;49.602;10.980;2022-07-23T09:59:20;3.70;;;3.15;;
10967;SDS011;5536;49.602;10.980;2022-07-23T10:01:51;4.15;;;3.40;;
10967;SDS011;5536;49.602;10.980;2022-07-23T10:04:20;3.92;;;3.33;;
10967;SDS011;5536;49.602;10.980;2022-07-23T10:06:49;3.55;;;3.28;;
10967;SDS011;5536;49.602;10.980;2022-07-23T10:09:20;3.75;;;3.35;;
10967;SDS011;5536;49.602;10.980;2022-07-23T10:11:52;4.80;;;3.00;;
10967;SDS011;5536;49.602;10.980;2022-07-23T10:14:26;4.15;;;3.75;;
10967;SDS011;5536;49.602;10.980;2022-07-23T10:16:56;6.03;;;3.55;;
10967;SDS011;5536;49.602;10.980;2022-07-23T10:19:23;4.70;;;3.95;;
10967;SDS011;5536;49.602;10.980;2022-07-23T10:21:52;4.82;;;3.50;;
10967;SDS011;5536;49.602;10.980;2022-07-23T10:24:28;3.50;;;3.20;;
10967;SDS011;5536;49.602;10.980;2022-07-23T10:27:12;3.90;;;3.28;;
10967;SDS011;5536;49.602;10.980;2022-07-23T10:30:04;3.92;;;3.30;;
10967;SDS011;5536;49.602;10.980;2022-07-23T10:32:37;3.72;;;3.38;;
10967;SDS011;5536;49.602;10.980;2022-07-23T10:35:10;4.22;;;3.10;;
10967;SDS011;5536;49.602;10.980;2022-07-23T10:37:45;3.55;;;3.25;;
10967;SDS011;5536;49.602;10.980;2022-07-23T10:40:17;5.28;;;4.75;;
10967;SDS011;5536;49.602;10.980;2022-07-23T10:42:47;5.40;;;3.15;;
10967;SDS011;5536;49.602;10.980;2022-07-23T10:45:24;3.38;;;3.08;;
10967;SDS011;5536;49.602;10.980;2022-07-23T10:47:54;3.60;;;3.10;;
10967;SDS011;5536;49.602;10.980;2022-07-23T10:50:22;3.97;;;3.28;;
10967;SDS011;5536;49.602;10.980;2022-07-23T10:53:11;3.67;;;3.25;;
10967;SDS011;5536;49.602;10.980;2022-07-23T10:55:52;3.42;;;3.13;;
10967;SDS011;5536;49.602;10.980;2022-07-23T10:58:21;4.03;;;3.40;;
10967;SDS011;5536;49.602;10.980;2022-07-23T11:00:49;3.90;;;3.60;;
10967;SDS011;5536;49.602;10.980;2022-07-23T11:03:33;3.80;;;3.50;;
10967;SDS011;5536;49.602;10.980;2022-07-23T11:06:03;3.85;;;3.55;;
10967;SDS011;5536;49.602;10.980;2022-07-23T11:08:31;4.32;;;3.58;;
10967;SDS011;5536;49.602;10.980;2022-07-23T11:11:10;3.30;;;2.97;;
10967;SDS011;5536;49.602;10.980;2022-07-23T11:13:41;3.22;;;2.97;;
10967;SDS011;5536;49.602;10.980;2022-07-23T11:16:14;3.30;;;3.00;;
10967;SDS011;5536;49.602;10.980;2022-07-23T11:21:48;3.47;;;3.17;;
10967;SDS011;5536;49.602;10.980;2022-07-23T11:24:16;3.63;;;3.00;;
10967;SDS011;5536;49.602;10.980;2022-07-23T11:26:50;3.90;;;3.45;;
10967;SDS011;5536;49.602;10.980;2022-07-23T11:29:38;3.90;;;3.50;;
10967;SDS011;5536;49.602;10.980;2022-07-23T11:32:18;3.17;;;2.83;;
10967;SDS011;5536;49.602;10.980;2022-07-23T11:34:49;4.03;;;3.65;;
10967;SDS011;5536;49.602;10.980;2022-07-23T11:37:27;3.78;;;3.10;;
10967;SDS011;5536;49.602;10.980;2022-07-23T11:40:06;4.15;;;3.72;;
10967;SDS011;5536;49.602;10.980;2022-07-23T11:42:36;11.50;;;3.33;;
10967;SDS011;5536;49.602;10.980;2022-07-23T11:45:05;4.18;;;3.38;;
10967;SDS011;5536;49.602;10.980;2022-07-23T11:47:33;5.22;;;3.38;;
10967;SDS011;5536;49.602;10.980;2022-07-23T11:50:02;4.00;;;3.53;;
10967;SDS011;5536;49.602;10.980;2022-07-23T11:52:31;3.05;;;2.83;;
10967;SDS011;5536;49.602;10.980;2022-07-23T11:54:59;4.38;;;3.40;;
10967;SDS011;5536;49.602;10.980;2022-07-23T11:57:29;3.47;;;3.17;;
10967;SDS011;5536;49.602;10.980;2022-07-23T12:00:00;3.85;;;3.55;;
10967;SDS011;5536;49.602;10.980;2022-07-23T12:02:31;4.15;;;3.13;;
10967;SDS011;5536;49.602;10.980;2022-07-23T12:04:58;3.20;;;2.92;;
10967;SDS011;5536;49.602;10.980;2022-07-23T12:07:25;3.65;;;2.95;;
10967;SDS011;5536;49.602;10.980;2022-07-23T12:09:58;3.22;;;3.03;;
10967;SDS011;5536;49.602;10.980;2022-07-23T12:12:26;4.38;;;3.72;;
10967;SDS011;5536;49.602;10.980;2022-07-23T12:14:54;3.17;;;2.88;;
10967;SDS011;5536;49.602;10.980;2022-07-23T12:17:28;3.28;;;2.60;;
10967;SDS011;5536;49.602;10.980;2022-07-23T12:19:56;3.13;;;2.65;;
10967;SDS011;5536;49.602;10.980;2022-07-23T12:22:25;3.40;;;3.10;;
10967;SDS011;5536;49.602;10.980;2022-07-23T12:25:00;3.45;;;3.15;;
10967;SDS011;5536;49.602;10.980;2022-07-23T12:27:29;3.47;;;3.17;;
10967;SDS011;5536;49.602;10.980;2022-07-23T12:29:56;7.18;;;2.90;;
10967;SDS011;5536;49.602;10.980;2022-07-23T12:32:24;3.38;;;3.00;;
10967;SDS011;5536;49.602;10.980;2022-07-23T12:35:03;3.03;;;2.83;;
10967;SDS011;5536;49.602;10.980;2022-07-23T12:37:32;3.38;;;3.08;;
10967;SDS011;5536;49.602;10.980;2022-07-23T12:42:49;2.65;;;2.47;;
10967;SDS011;5536;49.602;10.980;2022-07-23T12:45:17;3.63;;;3.33;;
10967;SDS011;5536;49.602;10.980;2022-07-23T12:47:54;3.42;;;3.08;;
10967;SDS011;5536;49.602;10.980;2022-07-23T12:53:26;4.85;;;3.00;;
10967;SDS011;5536;49.602;10.980;2022-07-23T12:55:58;2.92;;;2.72;;
10967;SDS011;5536;49.602;10.980;2022-07-23T12:58:38;3.10;;;2.90;;
10967;SDS011;5536;49.602;10.980;2022-07-23T13:01:06;2.95;;;2.75;;
10967;SDS011;5536;49.602;10.980;2022-07-23T13:03:35;2.83;;;2.63;;
10967;SDS011;5536;49.602;10.980;2022-07-23T13:06:06;2.85;;;2.65;;
10967;SDS011;5536;49.602;10.980;2022-07-23T13:08:35;2.83;;;2.63;;
10967;SDS011;5536;49.602;10.980;2022-07-23T13:11:03;3.28;;;2.70;;
10967;SDS011;5536;49.602;10.980;2022-07-23T13:13:32;5.55;;;3.35;;
10967;SDS011;5536;49.602;10.980;2022-07-23T13:16:01;2.55;;;2.45;;
10967;SDS011;5536;49.602;10.980;2022-07-23T13:18:28;2.85;;;2.53;;
10967;SDS011;5536;49.602;10.980;2022-07-23T13:20:55;2.85;;;2.65;;
10967;SDS011;5536;49.602;10.980;2022-07-23T13:23:24;5.63;;;2.83;;
10967;SDS011;5536;49.602;10.980;2022-07-23T13:25:51;2.40;;;2.30;;
10967;SDS011;5536;49.602;10.980;2022-07-23T13:28:18;2.80;;;2.60;;
10967;SDS011;5536;49.602;10.980;2022-07-23T13:30:46;2.63;;;2.42;;
10967;SDS011;5536;49.602;10.980;2022-07-23T13:33:14;5.85;;;2.88;;
10967;SDS011;5536;49.602;10.980;2022-07-23T13:35:42;4.68;;;2.90;;
10967;SDS011;5536;49.602;10.980;2022-07-23T13:38:10;2.85;;;2.65;;
10967;SDS011;5536;49.602;10.980;2022-07-23T13:40:40;2.83;;;2.63;;
10967;SDS011;5536;49.602;10.980;2022-07-23T13:43:09;2.95;;;2.75;;
10967;SDS011;5536;49.602;10.980;2022-07-23T13:45:37;3.30;;;3.00;;
10967;SDS011;5536;49.602;10.980;2022-07-23T13:48:04;4.25;;;3.85;;
10967;SDS011;5536;49.602;10.980;2022-07-23T13:50:32;4.05;;;2.97;;
10967;SDS011;5536;49.602;10.980;2022-07-23T13:53:00;3.40;;;2.85;;
10967;SDS011;5536;49.602;10.980;2022-07-23T13:55:28;3.53;;;3.22;;
10967;SDS011;5536;49.602;10.980;2022-07-23T13:57:56;2.83;;;2.63;;
10967;SDS011;5536;49.602;10.980;2022-07-23T14:00:24;3.38;;;2.65;;
10967;SDS011;5536;49.602;10.980;2022-07-23T14:02:51;3.13;;;2.92;;
10967;SDS011;5536;49.602;10.980;2022-07-23T14:05:18;3.95;;;3.00;;
10967;SDS011;5536;49.602;10.980;2022-07-23T14:07:45;4.85;;;2.72;;
10967;SDS011;5536;49.602;10.980;2022-07-23T14:10:14;3.85;;;2.70;;
10967;SDS011;5536;49.602;10.980;2022-07-23T14:12:42;3.30;;;3.00;;
10967;SDS011;5536;49.602;10.980;2022-07-23T14:15:10;3.45;;;2.58;;
10967;SDS011;5536;49.602;10.980;2022-07-23T14:17:38;3.40;;;3.10;;
10967;SDS011;5536;49.602;10.980;2022-07-23T14:20:07;3.42;;;2.97;;
10967;SDS011;5536;49.602;10.980;2022-07-23T14:22:35;2.70;;;2.50;;
10967;SDS011;5536;49.602;10.980;2022-07-23T14:25:03;2.80;;;2.55;;
10967;SDS011;5536;49.602;10.980;2022-07-23T14:27:31;3.42;;;3.13;;
10967;SDS011;5536;49.602;10.980;2022-07-23T14:29:58;2.75;;;2.55;;
10967;SDS011;5536;49.602;10.980;2022-07-23T14:32:27;2.67;;;2.45;;
10967;SDS011;5536;49.602;10.980;2022-07-23T14:34:53;2.65;;;2.45;;
10967;SDS011;5536;49.602;10.980;2022-07-23T14:37:20;2.92;;;2.72;;
10967;SDS011;5536;49.602;10.980;2022-07-23T14:39:47;3.22;;;2.97;;
10967;SDS011;5536;49.602;10.980;2022-07-23T14:42:14;2.50;;;2.30;;
10967;SDS011;5536;49.602;10.980;2022-07-23T14:44:41;2.45;;;2.25;;
10967;SDS011;5536;49.602;10.980;2022-07-23T14:47:08;2.40;;;2.20;;
10967;SDS011;5536;49.602;10.980;2022-07-23T14:49:37;2.92;;;2.70;;
10967;SDS011;5536;49.602;10.980;2022-07-23T14:52:04;2.83;;;2.63;;
10967;SDS011;5536;49.602;10.980;2022-07-23T14:54:33;4.90;;;3.25;;
10967;SDS011;5536;49.602;10.980;2022-07-23T14:57:01;2.53;;;2.33;;
10967;SDS011;5536;49.602;10.980;2022-07-23T14:59:31;2.92;;;2.65;;
10967;SDS011;5536;49.602;10.980;2022-07-23T15:01:58;3.05;;;2.72;;
10967;SDS011;5536;49.602;10.980;2022-07-23T15:04:28;2.60;;;2.40;;
10967;SDS011;5536;49.602;10.980;2022-07-23T15:07:07;2.28;;;2.17;;